sensor_id;sensor_type;location;lat;lon;timestamp;P1;durP1;ratioP1;P2;durP2;ratioP2
73593;SDS011;64760;53.404;23.498;2023-10-19T00:00:20;17.55;;;9.48;;
73593;SDS011;64760;53.404;23.498;2023-10-19T00:03:08;15.90;;;8.20;;
73593;SDS011;64760;53.404;23.498;2023-10-19T00:05:35;20.02;;;8.95;;
73593;SDS011;64760;53.404;23.498;2023-10-19T00:08:02;19.75;;;8.50;;
73593;SDS011;64760;53.404;23.498;2023-10-19T00:10:39;23.52;;;9.95;;
73593;SDS011;64760;53.404;23.498;2023-10-19T00:13:09;21.38;;;8.57;;
73593;SDS011;64760;53.404;23.498;2023-10-19T00:15:40;17.08;;;7.82;;
73593;SDS011;64760;53.404;23.498;2023-10-19T00:20:48;22.05;;;9.20;;
73593;SDS011;64760;53.404;23.498;2023-10-19T00:23:25;21.85;;;9.18;;
73593;SDS011;64760;53.404;23.498;2023-10-19T00:26:02;21.30;;;8.93;;
73593;SDS011;64760;53.404;23.498;2023-10-19T00:28:37;23.00;;;11.27;;
73593;SDS011;64760;53.404;23.498;2023-10-19T00:31:05;29.42;;;15.88;;
73593;SDS011;64760;53.404;23.498;2023-10-19T00:33:34;32.80;;;13.43;;
73593;SDS011;64760;53.404;23.498;2023-10-19T00:36:05;29.50;;;12.82;;
73593;SDS011;64760;53.404;23.498;2023-10-19T00:38:39;26.02;;;11.60;;
73593;SDS011;64760;53.404;23.498;2023-10-19T00:41:28;24.55;;;11.25;;
73593;SDS011;64760;53.404;23.498;2023-10-19T00:43:58;22.70;;;10.77;;
73593;SDS011;64760;53.404;23.498;2023-10-19T00:46:38;20.40;;;9.27;;
73593;SDS011;64760;53.404;23.498;2023-10-19T00:49:08;22.88;;;10.13;;
73593;SDS011;64760;53.404;23.498;2023-10-19T00:51:42;19.50;;;9.20;;
73593;SDS011;64760;53.404;23.498;2023-10-19T00:56:57;19.10;;;8.90;;
73593;SDS011;64760;53.404;23.498;2023-10-19T00:59:29;18.75;;;8.65;;
73593;SDS011;64760;53.404;23.498;2023-10-19T01:01:57;19.73;;;9.35;;
73593;SDS011;64760;53.404;23.498;2023-10-19T01:05:45;23.45;;;9.73;;
73593;SDS011;64760;53.404;23.498;2023-10-19T01:08:14;18.52;;;9.60;;
73593;SDS011;64760;53.404;23.498;2023-10-19T01:10:55;20.27;;;8.43;;
73593;SDS011;64760;53.404;23.498;2023-10-19T01:13:23;20.42;;;9.43;;
73593;SDS011;64760;53.404;23.498;2023-10-19T01:15:53;21.55;;;9.60;;
73593;SDS011;64760;53.404;23.498;2023-10-19T01:20:48;24.50;;;9.52;;
73593;SDS011;64760;53.404;23.498;2023-10-19T01:23:19;19.23;;;9.57;;
73593;SDS011;64760;53.404;23.498;2023-10-19T01:29:46;22.98;;;8.93;;
73593;SDS011;64760;53.404;23.498;2023-10-19T01:32:12;20.27;;;9.20;;
73593;SDS011;64760;53.404;23.498;2023-10-19T01:34:41;20.13;;;9.82;;
73593;SDS011;64760;53.404;23.498;2023-10-19T01:37:07;20.50;;;8.70;;
73593;SDS011;64760;53.404;23.498;2023-10-19T01:39:38;18.85;;;6.85;;
73593;SDS011;64760;53.404;23.498;2023-10-19T01:42:06;15.32;;;6.72;;
73593;SDS011;64760;53.404;23.498;2023-10-19T01:47:02;14.55;;;6.82;;
73593;SDS011;64760;53.404;23.498;2023-10-19T01:49:31;13.63;;;6.78;;
73593;SDS011;64760;53.404;23.498;2023-10-19T01:51:58;12.68;;;7.20;;
73593;SDS011;64760;53.404;23.498;2023-10-19T01:54:27;14.52;;;6.68;;
73593;SDS011;64760;53.404;23.498;2023-10-19T01:56:54;14.35;;;6.15;;
73593;SDS011;64760;53.404;23.498;2023-10-19T01:59:25;12.85;;;5.70;;
73593;SDS011;64760;53.404;23.498;2023-10-19T02:01:55;11.73;;;6.03;;
73593;SDS011;64760;53.404;23.498;2023-10-19T02:04:22;11.77;;;6.43;;
73593;SDS011;64760;53.404;23.498;2023-10-19T02:06:49;10.65;;;6.40;;
73593;SDS011;64760;53.404;23.498;2023-10-19T02:09:18;11.73;;;6.40;;
73593;SDS011;64760;53.404;23.498;2023-10-19T02:11:55;11.05;;;6.03;;
73593;SDS011;64760;53.404;23.498;2023-10-19T02:14:24;11.32;;;5.72;;
73593;SDS011;64760;53.404;23.498;2023-10-19T02:16:53;10.23;;;5.53;;
73593;SDS011;64760;53.404;23.498;2023-10-19T02:19:23;12.18;;;6.45;;
73593;SDS011;64760;53.404;23.498;2023-10-19T02:21:51;13.30;;;6.47;;
73593;SDS011;64760;53.404;23.498;2023-10-19T02:24:19;10.27;;;5.82;;
73593;SDS011;64760;53.404;23.498;2023-10-19T02:26:49;11.63;;;6.13;;
73593;SDS011;64760;53.404;23.498;2023-10-19T02:29:19;15.13;;;6.60;;
73593;SDS011;64760;53.404;23.498;2023-10-19T02:31:45;12.48;;;5.93;;
73593;SDS011;64760;53.404;23.498;2023-10-19T02:34:13;12.30;;;6.47;;
73593;SDS011;64760;53.404;23.498;2023-10-19T02:36:42;16.13;;;6.05;;
73593;SDS011;64760;53.404;23.498;2023-10-19T02:41:37;10.75;;;5.65;;
73593;SDS011;64760;53.404;23.498;2023-10-19T02:44:08;8.13;;;4.57;;
73593;SDS011;64760;53.404;23.498;2023-10-19T02:46:38;9.85;;;4.28;;
73593;SDS011;64760;53.404;23.498;2023-10-19T02:49:05;10.68;;;4.93;;
73593;SDS011;64760;53.404;23.498;2023-10-19T02:51:49;9.75;;;4.53;;
73593;SDS011;64760;53.404;23.498;2023-10-19T02:54:17;11.20;;;4.03;;
73593;SDS011;64760;53.404;23.498;2023-10-19T02:56:46;8.35;;;4.18;;
73593;SDS011;64760;53.404;23.498;2023-10-19T02:59:16;11.00;;;4.50;;
73593;SDS011;64760;53.404;23.498;2023-10-19T03:01:48;8.45;;;4.38;;
73593;SDS011;64760;53.404;23.498;2023-10-19T03:04:16;9.88;;;4.53;;
73593;SDS011;64760;53.404;23.498;2023-10-19T03:06:43;10.20;;;5.03;;
73593;SDS011;64760;53.404;23.498;2023-10-19T03:09:09;10.60;;;4.05;;
73593;SDS011;64760;53.404;23.498;2023-10-19T03:11:48;6.63;;;3.33;;
73593;SDS011;64760;53.404;23.498;2023-10-19T03:14:18;8.07;;;3.33;;
73593;SDS011;64760;53.404;23.498;2023-10-19T03:16:45;8.32;;;3.42;;
73593;SDS011;64760;53.404;23.498;2023-10-19T03:19:12;8.52;;;3.42;;
73593;SDS011;64760;53.404;23.498;2023-10-19T03:21:41;9.68;;;4.65;;
73593;SDS011;64760;53.404;23.498;2023-10-19T03:24:15;6.35;;;3.80;;
73593;SDS011;64760;53.404;23.498;2023-10-19T03:26:50;10.38;;;5.07;;
73593;SDS011;64760;53.404;23.498;2023-10-19T03:29:16;9.00;;;4.60;;
73593;SDS011;64760;53.404;23.498;2023-10-19T03:31:46;11.48;;;4.10;;
73593;SDS011;64760;53.404;23.498;2023-10-19T03:34:13;10.57;;;3.55;;
73593;SDS011;64760;53.404;23.498;2023-10-19T03:36:40;9.63;;;3.92;;
73593;SDS011;64760;53.404;23.498;2023-10-19T03:39:06;7.13;;;2.88;;
73593;SDS011;64760;53.404;23.498;2023-10-19T03:41:44;7.55;;;3.30;;
73593;SDS011;64760;53.404;23.498;2023-10-19T03:44:10;12.02;;;4.53;;
73593;SDS011;64760;53.404;23.498;2023-10-19T03:46:45;7.13;;;3.28;;
73593;SDS011;64760;53.404;23.498;2023-10-19T03:49:24;13.13;;;4.60;;
73593;SDS011;64760;53.404;23.498;2023-10-19T03:52:00;12.00;;;5.05;;
73593;SDS011;64760;53.404;23.498;2023-10-19T03:54:47;8.93;;;3.95;;
73593;SDS011;64760;53.404;23.498;2023-10-19T03:57:15;7.70;;;3.30;;
73593;SDS011;64760;53.404;23.498;2023-10-19T03:59:45;8.27;;;3.78;;
73593;SDS011;64760;53.404;23.498;2023-10-19T04:02:15;7.20;;;3.55;;
73593;SDS011;64760;53.404;23.498;2023-10-19T04:04:53;7.72;;;3.30;;
73593;SDS011;64760;53.404;23.498;2023-10-19T04:07:21;9.50;;;4.07;;
73593;SDS011;64760;53.404;23.498;2023-10-19T04:09:48;8.80;;;3.55;;
73593;SDS011;64760;53.404;23.498;2023-10-19T04:12:24;7.75;;;3.60;;
73593;SDS011;64760;53.404;23.498;2023-10-19T04:14:57;7.57;;;3.95;;
73593;SDS011;64760;53.404;23.498;2023-10-19T04:21:27;6.82;;;3.47;;
73593;SDS011;64760;53.404;23.498;2023-10-19T04:23:54;6.50;;;2.80;;
73593;SDS011;64760;53.404;23.498;2023-10-19T04:26:22;7.88;;;2.83;;
73593;SDS011;64760;53.404;23.498;2023-10-19T04:28:50;8.93;;;3.15;;
73593;SDS011;64760;53.404;23.498;2023-10-19T04:31:17;9.40;;;2.92;;
73593;SDS011;64760;53.404;23.498;2023-10-19T04:33:46;7.05;;;3.03;;
73593;SDS011;64760;53.404;23.498;2023-10-19T04:36:13;11.35;;;3.97;;
73593;SDS011;64760;53.404;23.498;2023-10-19T04:38:41;9.48;;;4.93;;
73593;SDS011;64760;53.404;23.498;2023-10-19T04:41:08;9.07;;;5.18;;
73593;SDS011;64760;53.404;23.498;2023-10-19T04:43:35;13.80;;;6.38;;
73593;SDS011;64760;53.404;23.498;2023-10-19T04:46:07;10.38;;;6.00;;
73593;SDS011;64760;53.404;23.498;2023-10-19T04:48:40;7.38;;;3.60;;
73593;SDS011;64760;53.404;23.498;2023-10-19T04:51:08;8.68;;;3.65;;
73593;SDS011;64760;53.404;23.498;2023-10-19T04:53:35;6.18;;;3.17;;
73593;SDS011;64760;53.404;23.498;2023-10-19T04:56:03;8.45;;;3.70;;
73593;SDS011;64760;53.404;23.498;2023-10-19T04:58:31;8.40;;;3.92;;
73593;SDS011;64760;53.404;23.498;2023-10-19T05:00:57;7.00;;;4.07;;
73593;SDS011;64760;53.404;23.498;2023-10-19T05:03:25;5.32;;;3.15;;
73593;SDS011;64760;53.404;23.498;2023-10-19T05:05:52;5.47;;;3.25;;
73593;SDS011;64760;53.404;23.498;2023-10-19T05:08:18;3.97;;;2.25;;
73593;SDS011;64760;53.404;23.498;2023-10-19T05:10:45;5.35;;;2.53;;
73593;SDS011;64760;53.404;23.498;2023-10-19T05:13:12;6.55;;;3.55;;
73593;SDS011;64760;53.404;23.498;2023-10-19T05:15:38;6.18;;;2.83;;
73593;SDS011;64760;53.404;23.498;2023-10-19T05:18:04;7.28;;;3.20;;
73593;SDS011;64760;53.404;23.498;2023-10-19T05:20:31;5.68;;;2.97;;
73593;SDS011;64760;53.404;23.498;2023-10-19T05:22:58;6.15;;;3.38;;
73593;SDS011;64760;53.404;23.498;2023-10-19T05:25:26;6.68;;;3.38;;
73593;SDS011;64760;53.404;23.498;2023-10-19T05:27:52;6.82;;;3.10;;
73593;SDS011;64760;53.404;23.498;2023-10-19T05:30:18;8.65;;;4.25;;
73593;SDS011;64760;53.404;23.498;2023-10-19T05:32:45;7.40;;;3.35;;
73593;SDS011;64760;53.404;23.498;2023-10-19T05:35:12;7.43;;;3.38;;
73593;SDS011;64760;53.404;23.498;2023-10-19T05:37:45;7.53;;;3.97;;
73593;SDS011;64760;53.404;23.498;2023-10-19T05:40:11;8.60;;;4.28;;
73593;SDS011;64760;53.404;23.498;2023-10-19T05:42:41;10.55;;;5.07;;
73593;SDS011;64760;53.404;23.498;2023-10-19T05:45:07;8.98;;;4.25;;
73593;SDS011;64760;53.404;23.498;2023-10-19T05:47:34;9.77;;;5.50;;
73593;SDS011;64760;53.404;23.498;2023-10-19T05:50:00;8.63;;;4.13;;
73593;SDS011;64760;53.404;23.498;2023-10-19T05:52:27;10.63;;;4.18;;
73593;SDS011;64760;53.404;23.498;2023-10-19T05:54:54;6.40;;;2.72;;
73593;SDS011;64760;53.404;23.498;2023-10-19T05:57:21;8.20;;;3.38;;
73593;SDS011;64760;53.404;23.498;2023-10-19T05:59:48;6.80;;;3.10;;
73593;SDS011;64760;53.404;23.498;2023-10-19T06:02:14;10.65;;;3.65;;
73593;SDS011;64760;53.404;23.498;2023-10-19T06:04:41;10.77;;;3.80;;
73593;SDS011;64760;53.404;23.498;2023-10-19T06:07:07;6.63;;;3.20;;
73593;SDS011;64760;53.404;23.498;2023-10-19T06:09:35;8.40;;;3.40;;
73593;SDS011;64760;53.404;23.498;2023-10-19T06:12:02;13.20;;;4.55;;
73593;SDS011;64760;53.404;23.498;2023-10-19T06:14:29;12.23;;;4.13;;
73593;SDS011;64760;53.404;23.498;2023-10-19T06:16:56;10.07;;;3.65;;
73593;SDS011;64760;53.404;23.498;2023-10-19T06:19:22;6.90;;;3.15;;
73593;SDS011;64760;53.404;23.498;2023-10-19T06:21:50;5.60;;;2.72;;
73593;SDS011;64760;53.404;23.498;2023-10-19T06:24:16;6.15;;;2.38;;
73593;SDS011;64760;53.404;23.498;2023-10-19T06:26:44;6.97;;;3.38;;
73593;SDS011;64760;53.404;23.498;2023-10-19T06:29:10;10.02;;;3.50;;
73593;SDS011;64760;53.404;23.498;2023-10-19T06:31:37;8.75;;;3.25;;
73593;SDS011;64760;53.404;23.498;2023-10-19T06:34:03;8.07;;;3.17;;
73593;SDS011;64760;53.404;23.498;2023-10-19T06:36:30;5.18;;;2.17;;
73593;SDS011;64760;53.404;23.498;2023-10-19T06:38:56;9.27;;;2.88;;
73593;SDS011;64760;53.404;23.498;2023-10-19T06:41:23;5.47;;;2.95;;
73593;SDS011;64760;53.404;23.498;2023-10-19T06:43:49;6.13;;;2.58;;
73593;SDS011;64760;53.404;23.498;2023-10-19T06:46:16;5.60;;;3.13;;
73593;SDS011;64760;53.404;23.498;2023-10-19T06:48:42;5.90;;;2.95;;
73593;SDS011;64760;53.404;23.498;2023-10-19T06:51:08;4.13;;;2.30;;
73593;SDS011;64760;53.404;23.498;2023-10-19T06:53:34;5.75;;;2.45;;
73593;SDS011;64760;53.404;23.498;2023-10-19T06:56:02;6.43;;;2.60;;
73593;SDS011;64760;53.404;23.498;2023-10-19T06:58:29;3.78;;;1.65;;
73593;SDS011;64760;53.404;23.498;2023-10-19T07:00:56;4.68;;;2.13;;
73593;SDS011;64760;53.404;23.498;2023-10-19T07:03:25;4.68;;;2.33;;
73593;SDS011;64760;53.404;23.498;2023-10-19T07:05:54;8.25;;;3.85;;
73593;SDS011;64760;53.404;23.498;2023-10-19T07:08:20;6.30;;;3.08;;
73593;SDS011;64760;53.404;23.498;2023-10-19T07:10:47;9.13;;;3.00;;
73593;SDS011;64760;53.404;23.498;2023-10-19T07:13:15;4.60;;;2.30;;
73593;SDS011;64760;53.404;23.498;2023-10-19T07:15:44;6.68;;;2.38;;
73593;SDS011;64760;53.404;23.498;2023-10-19T07:18:10;6.47;;;2.15;;
73593;SDS011;64760;53.404;23.498;2023-10-19T07:20:37;5.15;;;2.45;;
73593;SDS011;64760;53.404;23.498;2023-10-19T07:23:08;4.90;;;2.53;;
73593;SDS011;64760;53.404;23.498;2023-10-19T07:25:46;4.60;;;2.20;;
73593;SDS011;64760;53.404;23.498;2023-10-19T07:28:14;5.28;;;2.78;;
73593;SDS011;64760;53.404;23.498;2023-10-19T07:30:42;5.90;;;2.05;;
73593;SDS011;64760;53.404;23.498;2023-10-19T07:33:09;3.95;;;2.28;;
73593;SDS011;64760;53.404;23.498;2023-10-19T07:38:15;5.85;;;2.30;;
73593;SDS011;64760;53.404;23.498;2023-10-19T07:40:43;4.65;;;2.25;;
73593;SDS011;64760;53.404;23.498;2023-10-19T07:43:09;4.15;;;1.55;;
73593;SDS011;64760;53.404;23.498;2023-10-19T07:45:35;3.53;;;1.88;;
73593;SDS011;64760;53.404;23.498;2023-10-19T07:48:02;3.50;;;1.63;;
73593;SDS011;64760;53.404;23.498;2023-10-19T07:50:33;3.13;;;1.65;;
73593;SDS011;64760;53.404;23.498;2023-10-19T07:53:00;3.22;;;1.60;;
73593;SDS011;64760;53.404;23.498;2023-10-19T07:55:31;3.15;;;1.48;;
73593;SDS011;64760;53.404;23.498;2023-10-19T07:57:57;3.28;;;1.77;;
73593;SDS011;64760;53.404;23.498;2023-10-19T08:00:32;3.45;;;1.60;;
73593;SDS011;64760;53.404;23.498;2023-10-19T08:03:02;2.92;;;1.48;;
73593;SDS011;64760;53.404;23.498;2023-10-19T08:05:30;3.13;;;1.35;;
73593;SDS011;64760;53.404;23.498;2023-10-19T08:07:57;3.60;;;1.58;;
73593;SDS011;64760;53.404;23.498;2023-10-19T08:10:26;3.63;;;1.40;;
73593;SDS011;64760;53.404;23.498;2023-10-19T08:12:52;4.25;;;1.88;;
73593;SDS011;64760;53.404;23.498;2023-10-19T08:15:19;5.10;;;2.03;;
73593;SDS011;64760;53.404;23.498;2023-10-19T08:17:50;3.08;;;1.50;;
73593;SDS011;64760;53.404;23.498;2023-10-19T08:20:19;7.47;;;2.40;;
73593;SDS011;64760;53.404;23.498;2023-10-19T08:22:58;5.13;;;2.67;;
73593;SDS011;64760;53.404;23.498;2023-10-19T08:25:27;3.60;;;1.98;;
73593;SDS011;64760;53.404;23.498;2023-10-19T08:27:54;4.97;;;2.10;;
73593;SDS011;64760;53.404;23.498;2023-10-19T08:30:24;4.93;;;2.00;;
73593;SDS011;64760;53.404;23.498;2023-10-19T08:32:50;4.53;;;1.92;;
73593;SDS011;64760;53.404;23.498;2023-10-19T08:35:19;2.67;;;1.42;;
73593;SDS011;64760;53.404;23.498;2023-10-19T08:37:50;3.38;;;1.75;;
73593;SDS011;64760;53.404;23.498;2023-10-19T08:40:21;4.28;;;2.00;;
73593;SDS011;64760;53.404;23.498;2023-10-19T08:42:49;4.05;;;2.00;;
73593;SDS011;64760;53.404;23.498;2023-10-19T08:45:16;3.60;;;1.63;;
73593;SDS011;64760;53.404;23.498;2023-10-19T08:47:56;9.25;;;5.80;;
73593;SDS011;64760;53.404;23.498;2023-10-19T08:50:28;6.90;;;4.43;;
73593;SDS011;64760;53.404;23.498;2023-10-19T08:52:57;5.68;;;2.20;;
73593;SDS011;64760;53.404;23.498;2023-10-19T08:55:25;5.80;;;2.22;;
73593;SDS011;64760;53.404;23.498;2023-10-19T08:57:51;5.32;;;2.40;;
73593;SDS011;64760;53.404;23.498;2023-10-19T09:00:19;8.02;;;2.88;;
73593;SDS011;64760;53.404;23.498;2023-10-19T09:02:51;5.68;;;2.25;;
73593;SDS011;64760;53.404;23.498;2023-10-19T09:05:18;4.18;;;2.00;;
73593;SDS011;64760;53.404;23.498;2023-10-19T09:07:54;4.28;;;1.75;;
73593;SDS011;64760;53.404;23.498;2023-10-19T09:10:27;3.83;;;1.50;;
73593;SDS011;64760;53.404;23.498;2023-10-19T09:13:02;8.10;;;3.42;;
73593;SDS011;64760;53.404;23.498;2023-10-19T09:15:40;4.82;;;2.50;;
73593;SDS011;64760;53.404;23.498;2023-10-19T09:20:48;3.65;;;1.48;;
73593;SDS011;64760;53.404;23.498;2023-10-19T09:23:25;15.73;;;4.50;;
73593;SDS011;64760;53.404;23.498;2023-10-19T09:26:01;3.45;;;1.48;;
73593;SDS011;64760;53.404;23.498;2023-10-19T09:28:36;8.57;;;3.10;;
73593;SDS011;64760;53.404;23.498;2023-10-19T09:31:03;9.27;;;4.35;;
73593;SDS011;64760;53.404;23.498;2023-10-19T09:33:33;4.07;;;2.10;;
73593;SDS011;64760;53.404;23.498;2023-10-19T09:36:03;4.43;;;2.10;;
73593;SDS011;64760;53.404;23.498;2023-10-19T09:38:31;3.22;;;1.80;;
73593;SDS011;64760;53.404;23.498;2023-10-19T09:40:59;4.38;;;1.58;;
73593;SDS011;64760;53.404;23.498;2023-10-19T09:43:37;4.32;;;1.80;;
73593;SDS011;64760;53.404;23.498;2023-10-19T09:46:11;5.00;;;2.17;;
73593;SDS011;64760;53.404;23.498;2023-10-19T09:51:09;4.65;;;2.00;;
73593;SDS011;64760;53.404;23.498;2023-10-19T09:53:36;8.70;;;3.63;;
73593;SDS011;64760;53.404;23.498;2023-10-19T09:56:10;5.00;;;2.75;;
73593;SDS011;64760;53.404;23.498;2023-10-19T09:58:54;3.85;;;1.73;;
73593;SDS011;64760;53.404;23.498;2023-10-19T10:01:25;5.75;;;3.00;;
73593;SDS011;64760;53.404;23.498;2023-10-19T10:03:53;6.00;;;2.83;;
73593;SDS011;64760;53.404;23.498;2023-10-19T10:06:27;8.20;;;3.10;;
73593;SDS011;64760;53.404;23.498;2023-10-19T10:09:12;6.10;;;1.95;;
73593;SDS011;64760;53.404;23.498;2023-10-19T10:11:53;4.90;;;2.00;;
73593;SDS011;64760;53.404;23.498;2023-10-19T10:14:22;4.65;;;1.70;;
73593;SDS011;64760;53.404;23.498;2023-10-19T10:17:01;4.32;;;2.22;;
73593;SDS011;64760;53.404;23.498;2023-10-19T10:19:28;5.15;;;1.98;;
73593;SDS011;64760;53.404;23.498;2023-10-19T10:24:46;5.15;;;2.22;;
73593;SDS011;64760;53.404;23.498;2023-10-19T10:27:17;3.97;;;1.80;;
73593;SDS011;64760;53.404;23.498;2023-10-19T10:29:55;8.00;;;2.80;;
73593;SDS011;64760;53.404;23.498;2023-10-19T10:32:44;5.20;;;2.13;;
73593;SDS011;64760;53.404;23.498;2023-10-19T10:38:08;5.25;;;1.70;;
73593;SDS011;64760;53.404;23.498;2023-10-19T10:40:44;4.72;;;1.95;;
73593;SDS011;64760;53.404;23.498;2023-10-19T10:43:11;5.03;;;2.00;;
73593;SDS011;64760;53.404;23.498;2023-10-19T10:45:38;8.02;;;2.60;;
73593;SDS011;64760;53.404;23.498;2023-10-19T10:48:10;3.70;;;1.63;;
73593;SDS011;64760;53.404;23.498;2023-10-19T10:50:40;3.33;;;1.50;;
73593;SDS011;64760;53.404;23.498;2023-10-19T10:53:08;3.22;;;1.27;;
73593;SDS011;64760;53.404;23.498;2023-10-19T10:55:37;3.35;;;1.40;;
73593;SDS011;64760;53.404;23.498;2023-10-19T10:58:05;3.58;;;1.58;;
73593;SDS011;64760;53.404;23.498;2023-10-19T11:00:31;2.50;;;1.25;;
73593;SDS011;64760;53.404;23.498;2023-10-19T11:03:03;3.78;;;1.40;;
73593;SDS011;64760;53.404;23.498;2023-10-19T11:05:33;3.50;;;1.40;;
73593;SDS011;64760;53.404;23.498;2023-10-19T11:08:03;4.93;;;1.85;;
73593;SDS011;64760;53.404;23.498;2023-10-19T11:10:34;3.92;;;1.90;;
73593;SDS011;64760;53.404;23.498;2023-10-19T11:13:08;2.90;;;1.10;;
73593;SDS011;64760;53.404;23.498;2023-10-19T11:15:35;8.02;;;1.92;;
73593;SDS011;64760;53.404;23.498;2023-10-19T11:18:03;2.80;;;1.30;;
73593;SDS011;64760;53.404;23.498;2023-10-19T11:20:30;2.50;;;1.23;;
73593;SDS011;64760;53.404;23.498;2023-10-19T11:22:57;3.92;;;1.85;;
73593;SDS011;64760;53.404;23.498;2023-10-19T11:25:27;2.85;;;1.00;;
73593;SDS011;64760;53.404;23.498;2023-10-19T11:27:58;2.83;;;1.40;;
73593;SDS011;64760;53.404;23.498;2023-10-19T11:30:26;3.60;;;1.60;;
73593;SDS011;64760;53.404;23.498;2023-10-19T11:32:55;2.60;;;1.30;;
73593;SDS011;64760;53.404;23.498;2023-10-19T11:35:27;3.17;;;1.50;;
73593;SDS011;64760;53.404;23.498;2023-10-19T11:37:59;3.00;;;1.40;;
73593;SDS011;64760;53.404;23.498;2023-10-19T11:40:28;6.63;;;2.60;;
73593;SDS011;64760;53.404;23.498;2023-10-19T11:42:55;8.82;;;4.32;;
73593;SDS011;64760;53.404;23.498;2023-10-19T11:45:27;6.72;;;2.20;;
73593;SDS011;64760;53.404;23.498;2023-10-19T11:47:55;6.53;;;2.83;;
73593;SDS011;64760;53.404;23.498;2023-10-19T11:50:22;5.72;;;1.95;;
73593;SDS011;64760;53.404;23.498;2023-10-19T11:52:51;9.52;;;3.72;;
73593;SDS011;64760;53.404;23.498;2023-10-19T11:55:18;3.95;;;1.90;;
73593;SDS011;64760;53.404;23.498;2023-10-19T11:57:47;4.55;;;1.83;;
73593;SDS011;64760;53.404;23.498;2023-10-19T12:00:14;6.05;;;2.70;;
73593;SDS011;64760;53.404;23.498;2023-10-19T12:07:40;5.30;;;2.00;;
73593;SDS011;64760;53.404;23.498;2023-10-19T12:10:08;5.28;;;1.75;;
73593;SDS011;64760;53.404;23.498;2023-10-19T12:12:36;2.38;;;1.23;;
73593;SDS011;64760;53.404;23.498;2023-10-19T12:15:03;4.03;;;1.50;;
73593;SDS011;64760;53.404;23.498;2023-10-19T12:17:33;4.90;;;2.10;;
73593;SDS011;64760;53.404;23.498;2023-10-19T12:19:59;6.03;;;2.40;;
73593;SDS011;64760;53.404;23.498;2023-10-19T12:22:26;3.17;;;1.55;;
73593;SDS011;64760;53.404;23.498;2023-10-19T12:25:00;6.07;;;2.50;;
73593;SDS011;64760;53.404;23.498;2023-10-19T12:27:26;4.47;;;2.17;;
73593;SDS011;64760;53.404;23.498;2023-10-19T12:29:54;4.95;;;1.95;;
73593;SDS011;64760;53.404;23.498;2023-10-19T12:32:21;3.60;;;1.75;;
73593;SDS011;64760;53.404;23.498;2023-10-19T12:34:47;5.70;;;2.10;;
73593;SDS011;64760;53.404;23.498;2023-10-19T12:37:22;4.85;;;1.98;;
73593;SDS011;64760;53.404;23.498;2023-10-19T12:39:48;3.55;;;1.50;;
73593;SDS011;64760;53.404;23.498;2023-10-19T12:42:15;6.57;;;2.47;;
73593;SDS011;64760;53.404;23.498;2023-10-19T12:44:42;5.30;;;2.28;;
73593;SDS011;64760;53.404;23.498;2023-10-19T12:47:10;7.13;;;3.10;;
73593;SDS011;64760;53.404;23.498;2023-10-19T12:49:40;4.65;;;1.98;;
73593;SDS011;64760;53.404;23.498;2023-10-19T12:52:07;4.15;;;2.08;;
73593;SDS011;64760;53.404;23.498;2023-10-19T12:54:34;4.20;;;2.05;;
73593;SDS011;64760;53.404;23.498;2023-10-19T12:57:03;5.53;;;2.05;;
73593;SDS011;64760;53.404;23.498;2023-10-19T12:59:36;4.57;;;2.22;;
73593;SDS011;64760;53.404;23.498;2023-10-19T13:05:12;9.93;;;3.30;;
73593;SDS011;64760;53.404;23.498;2023-10-19T13:07:42;12.82;;;4.32;;
73593;SDS011;64760;53.404;23.498;2023-10-19T13:10:09;6.55;;;2.90;;
73593;SDS011;64760;53.404;23.498;2023-10-19T13:12:35;8.32;;;3.17;;
73593;SDS011;64760;53.404;23.498;2023-10-19T13:15:03;8.80;;;3.22;;
73593;SDS011;64760;53.404;23.498;2023-10-19T13:17:33;7.05;;;2.75;;
73593;SDS011;64760;53.404;23.498;2023-10-19T13:20:00;9.57;;;3.63;;
73593;SDS011;64760;53.404;23.498;2023-10-19T13:22:41;4.45;;;2.05;;
73593;SDS011;64760;53.404;23.498;2023-10-19T13:25:08;7.88;;;3.10;;
73593;SDS011;64760;53.404;23.498;2023-10-19T13:27:44;7.55;;;3.28;;
73593;SDS011;64760;53.404;23.498;2023-10-19T13:30:11;7.18;;;4.30;;
73593;SDS011;64760;53.404;23.498;2023-10-19T13:32:41;9.25;;;3.95;;
73593;SDS011;64760;53.404;23.498;2023-10-19T13:35:08;8.68;;;4.10;;
73593;SDS011;64760;53.404;23.498;2023-10-19T13:37:35;7.97;;;3.88;;
73593;SDS011;64760;53.404;23.498;2023-10-19T13:40:03;8.57;;;3.55;;
73593;SDS011;64760;53.404;23.498;2023-10-19T13:42:32;8.05;;;3.05;;
73593;SDS011;64760;53.404;23.498;2023-10-19T13:45:18;8.00;;;3.55;;
73593;SDS011;64760;53.404;23.498;2023-10-19T13:47:45;9.20;;;3.80;;
73593;SDS011;64760;53.404;23.498;2023-10-19T13:50:11;7.22;;;3.90;;
73593;SDS011;64760;53.404;23.498;2023-10-19T13:52:39;4.78;;;1.95;;
73593;SDS011;64760;53.404;23.498;2023-10-19T13:55:05;6.63;;;3.03;;
73593;SDS011;64760;53.404;23.498;2023-10-19T13:57:33;5.93;;;2.38;;
73593;SDS011;64760;53.404;23.498;2023-10-19T13:59:59;7.32;;;2.75;;
73593;SDS011;64760;53.404;23.498;2023-10-19T14:02:27;8.57;;;3.00;;
73593;SDS011;64760;53.404;23.498;2023-10-19T14:04:53;5.95;;;3.22;;
73593;SDS011;64760;53.404;23.498;2023-10-19T14:07:20;10.13;;;3.50;;
73593;SDS011;64760;53.404;23.498;2023-10-19T14:09:46;7.68;;;3.40;;
73593;SDS011;64760;53.404;23.498;2023-10-19T14:12:13;5.22;;;1.98;;
73593;SDS011;64760;53.404;23.498;2023-10-19T14:14:39;9.38;;;4.30;;
73593;SDS011;64760;53.404;23.498;2023-10-19T14:17:07;7.63;;;3.03;;
73593;SDS011;64760;53.404;23.498;2023-10-19T14:19:33;4.97;;;2.10;;
73593;SDS011;64760;53.404;23.498;2023-10-19T14:21:59;6.72;;;2.63;;
73593;SDS011;64760;53.404;23.498;2023-10-19T14:24:25;10.15;;;4.75;;
73593;SDS011;64760;53.404;23.498;2023-10-19T14:26:52;3.88;;;1.70;;
73593;SDS011;64760;53.404;23.498;2023-10-19T14:29:19;4.70;;;2.45;;
73593;SDS011;64760;53.404;23.498;2023-10-19T14:31:46;7.72;;;3.67;;
73593;SDS011;64760;53.404;23.498;2023-10-19T14:34:12;5.43;;;2.33;;
73593;SDS011;64760;53.404;23.498;2023-10-19T14:39:06;8.15;;;4.20;;
73593;SDS011;64760;53.404;23.498;2023-10-19T14:41:35;5.40;;;2.80;;
73593;SDS011;64760;53.404;23.498;2023-10-19T14:44:03;10.23;;;3.08;;
73593;SDS011;64760;53.404;23.498;2023-10-19T14:46:35;8.00;;;3.20;;
73593;SDS011;64760;53.404;23.498;2023-10-19T14:49:16;11.90;;;3.50;;
73593;SDS011;64760;53.404;23.498;2023-10-19T14:52:16;3.50;;;1.90;;
73593;SDS011;64760;53.404;23.498;2023-10-19T14:55:08;9.15;;;3.80;;
73593;SDS011;64760;53.404;23.498;2023-10-19T14:57:50;9.05;;;3.58;;
73593;SDS011;64760;53.404;23.498;2023-10-19T15:01:05;10.85;;;4.38;;
73593;SDS011;64760;53.404;23.498;2023-10-19T15:03:49;6.57;;;3.35;;
73593;SDS011;64760;53.404;23.498;2023-10-19T15:06:33;9.18;;;4.13;;
73593;SDS011;64760;53.404;23.498;2023-10-19T15:09:12;6.22;;;2.72;;
73593;SDS011;64760;53.404;23.498;2023-10-19T15:11:43;7.13;;;3.45;;
73593;SDS011;64760;53.404;23.498;2023-10-19T15:14:39;6.90;;;3.40;;
73593;SDS011;64760;53.404;23.498;2023-10-19T15:17:30;6.47;;;3.30;;
73593;SDS011;64760;53.404;23.498;2023-10-19T15:20:25;8.63;;;3.95;;
73593;SDS011;64760;53.404;23.498;2023-10-19T15:23:28;5.82;;;2.83;;
73593;SDS011;64760;53.404;23.498;2023-10-19T15:25:58;11.15;;;5.07;;
73593;SDS011;64760;53.404;23.498;2023-10-19T15:28:24;14.50;;;5.10;;
73593;SDS011;64760;53.404;23.498;2023-10-19T15:30:50;20.42;;;6.85;;
73593;SDS011;64760;53.404;23.498;2023-10-19T15:33:17;16.58;;;5.80;;